Watrous, Canada
Current Conditions -  °F | °C
As of 8:00 AM on Friday 24 Oct 2014 (Local Time) from CYXE Reporting Station
Broken Clouds Broken Clouds  
Wind Chill: 35°   Ceiling: 8700
Heat Index: 43°   Visibility: 15mi
Dew Point: 34°   Wind: 18mph
Humidity: 70%   Direction: 300°WNW
Pressure: 29.67"   Gusts: 29mph
Location:  51.67°N, 105.45°W
Report Text: CYXE 241400Z 30016G25KT 15SM BKN087 BKN220 06/01 A2967 RMK AC5CI1 SLP062
Loading
Personal Weather Stations






























Interactive Weather Map New forecast layout! Learn more

10-Day Weather Forecast

Advertisements
Track Severe Weather on mobile